Terminal Aerodrome Forecast
Issued by NWS Portland, OR

Home | Current Version | Previous Version | Text Only | Print | Product List | Glossary On
Versions: 1 2 3 4 5 6 7 8 9 10 11 12 13 14 15 16 17 18
000
FTUS46 KPQR 282328
TAFSLE
TAF
KSLE 282328Z 2900/2924 01010KT P6SM SKC
     FM290200 34004KT P6SM SKC
     FM291400 VRB02KT P6SM FEW019
     FM291700 35007KT P6SM SKC=

USA.gov is the U.S. government's official web portal to all federal, state and local government web resources and services.